Time;durP1;ratioP1;P1;durP2;ratioP2;P2;SDS_P1;SDS_P2;PMS_P1;PMS_P2;Temp;Humidity;BMP_temperature;BMP_pressure;BME280_temperature;BME280_humidity;BME280_pressure;Samples;Min_cycle;Max_cycle;Signal;HPM_P1;HPM_P2
2023/02/13 00:02:21;;;;;;;12.77;7.10;;;9.10;99.90;;;;;;4992364;28;20164;-72
2023/02/13 00:04:46;;;;;;;12.93;7.03;;;9.20;99.90;;;;;;4991026;28;20251;-72
2023/02/13 00:07:12;;;;;;;17.87;7.70;;;9.10;99.90;;;;;;4992277;28;20175;-72
2023/02/13 00:09:38;;;;;;;14.60;8.40;;;9.10;99.90;;;;;;4990991;28;20234;-72
2023/02/13 00:12:05;;;;;;;17.50;8.47;;;9.10;99.90;;;;;;4992437;28;20188;-72
2023/02/13 00:14:34;;;;;;;10.40;7.50;;;9.10;99.90;;;;;;4991977;28;20455;-72
2023/02/13 00:16:59;;;;;;;16.53;8.77;;;9.10;99.90;;;;;;4992480;28;20419;-72
2023/02/13 00:19:25;;;;;;;14.13;8.13;;;9.10;99.90;;;;;;4996655;28;20412;-72
2023/02/13 00:21:50;;;;;;;17.60;9.50;;;9.10;99.90;;;;;;5020574;28;20195;-72
2023/02/13 00:24:16;;;;;;;14.13;8.77;;;9.10;99.90;;;;;;5011569;28;20191;-72
2023/02/13 00:26:41;;;;;;;17.93;9.80;;;9.10;99.90;;;;;;5011918;28;20575;-72
2023/02/13 00:29:07;;;;;;;14.33;8.60;;;9.00;99.90;;;;;;5002322;28;20707;-72
2023/02/13 00:31:32;;;;;;;13.07;9.47;;;9.00;99.90;;;;;;4992157;28;20446;-72
2023/02/13 00:33:58;;;;;;;11.73;8.27;;;9.00;99.90;;;;;;4991868;28;20197;-72
2023/02/13 00:36:24;;;;;;;12.47;7.83;;;9.00;99.90;;;;;;4991808;28;20201;-72
2023/02/13 00:38:50;;;;;;;13.57;9.10;;;9.00;99.90;;;;;;4992221;28;20637;-72
2023/02/13 00:41:16;;;;;;;14.43;8.47;;;9.00;99.90;;;;;;4992146;28;20791;-72
2023/02/13 00:43:43;;;;;;;17.60;9.20;;;9.00;99.90;;;;;;4992151;28;20913;-72
2023/02/13 00:46:09;;;;;;;14.57;8.87;;;9.00;99.90;;;;;;4991638;28;20930;-72
2023/02/13 00:48:35;;;;;;;15.57;7.80;;;9.00;99.90;;;;;;4992031;28;20419;-72
2023/02/13 00:51:01;;;;;;;11.77;7.60;;;9.00;99.90;;;;;;4991916;28;20196;-72
2023/02/13 00:53:27;;;;;;;12.67;8.43;;;9.00;99.90;;;;;;4991915;28;20209;-72
2023/02/13 00:55:53;;;;;;;17.03;10.30;;;8.90;99.90;;;;;;4990268;28;20423;-72
2023/02/13 00:58:19;;;;;;;12.93;8.17;;;9.00;99.90;;;;;;4992012;28;20168;-72
2023/02/13 01:00:46;;;;;;;13.70;8.00;;;9.00;99.90;;;;;;4991853;28;20522;-72
2023/02/13 01:03:13;;;;;;;21.00;9.77;;;9.00;99.90;;;;;;4995212;28;20806;-72
2023/02/13 01:05:38;;;;;;;17.10;8.90;;;9.00;99.90;;;;;;4994999;28;20407;-72
2023/02/13 01:08:04;;;;;;;14.67;8.43;;;8.90;99.90;;;;;;4995231;28;20461;-72
2023/02/13 01:10:30;;;;;;;16.53;8.07;;;8.90;99.90;;;;;;4995200;28;20246;-72
2023/02/13 01:12:55;;;;;;;11.77;7.20;;;8.90;99.90;;;;;;4995094;28;20193;-72
2023/02/13 01:15:21;;;;;;;16.07;9.50;;;9.00;99.90;;;;;;4994993;28;20165;-72
2023/02/13 01:17:47;;;;;;;11.50;8.37;;;9.00;99.90;;;;;;4996985;28;20181;-72
2023/02/13 01:20:13;;;;;;;12.07;9.57;;;9.00;99.90;;;;;;4995021;28;20802;-72
2023/02/13 01:22:39;;;;;;;14.80;8.67;;;8.90;99.90;;;;;;4995114;28;20172;-72
2023/02/13 01:25:05;;;;;;;17.70;9.27;;;8.90;99.90;;;;;;4994629;28;20404;-72
2023/02/13 01:27:31;;;;;;;15.37;7.83;;;8.90;99.90;;;;;;4993803;28;20318;-72
2023/02/13 01:29:57;;;;;;;17.20;9.00;;;9.00;99.90;;;;;;5006513;28;20498;-72
2023/02/13 01:32:22;;;;;;;14.37;7.70;;;9.00;99.90;;;;;;5022806;28;20407;-72
2023/02/13 01:34:48;;;;;;;12.10;8.20;;;9.00;99.90;;;;;;5014048;28;20248;-72
2023/02/13 01:37:13;;;;;;;12.73;7.80;;;8.90;99.90;;;;;;5014446;28;20171;-72
2023/02/13 01:39:39;;;;;;;13.33;8.30;;;9.00;99.90;;;;;;5014253;28;20243;-72
2023/02/13 01:42:14;;;;;;;11.13;7.10;;;8.90;99.90;;;;;;5014298;28;20208;-72
2023/02/13 01:44:54;;;;;;;13.07;7.40;;;8.90;99.90;;;;;;5012398;28;20171;-72
2023/02/13 01:47:39;;;;;;;12.63;8.03;;;8.90;99.90;;;;;;4994498;28;20408;-72
2023/02/13 01:50:10;;;;;;;9.77;6.60;;;9.00;99.90;;;;;;4994596;28;20392;-72
2023/02/13 01:52:41;;;;;;;12.90;8.07;;;8.90;99.90;;;;;;4994366;28;20518;-72
2023/02/13 01:55:08;;;;;;;10.43;6.70;;;8.90;99.90;;;;;;4994305;28;20948;-72
2023/02/13 01:57:35;;;;;;;10.80;6.63;;;8.90;99.90;;;;;;4994608;28;20964;-72
2023/02/13 02:00:13;;;;;;;13.90;8.30;;;8.80;99.90;;;;;;4994476;28;20543;-72
2023/02/13 02:02:45;;;;;;;10.90;7.33;;;8.90;99.90;;;;;;4994144;28;20466;-72
2023/02/13 02:05:11;;;;;;;10.10;7.07;;;8.90;99.90;;;;;;4994100;28;20427;-72
2023/02/13 02:07:40;;;;;;;10.03;7.33;;;8.80;99.90;;;;;;4994232;28;20527;-72
2023/02/13 02:10:15;;;;;;;9.60;6.50;;;8.80;99.90;;;;;;4994030;28;20427;-72
2023/02/13 02:12:59;;;;;;;11.80;6.63;;;8.80;99.90;;;;;;4993466;28;20451;-72
2023/02/13 02:15:25;;;;;;;8.37;5.97;;;8.80;99.90;;;;;;4992658;28;20420;-72
2023/02/13 02:17:50;;;;;;;9.20;6.50;;;8.70;99.90;;;;;;4994939;28;20463;-72
2023/02/13 02:20:34;;;;;;;10.47;7.73;;;8.70;99.90;;;;;;4993913;28;20195;-72
2023/02/13 02:23:34;;;;;;;10.33;7.20;;;8.70;99.90;;;;;;4992949;28;20733;-72
2023/02/13 02:25:59;;;;;;;8.97;6.30;;;8.70;99.90;;;;;;4993712;28;20411;-72
2023/02/13 02:28:30;;;;;;;11.03;7.10;;;8.70;99.90;;;;;;4992644;28;20404;-72
2023/02/13 02:31:37;;;;;;;11.60;7.07;;;8.60;99.90;;;;;;4992363;28;20606;-72
2023/02/13 02:34:16;;;;;;;11.73;7.83;;;8.70;99.90;;;;;;4992477;28;21003;-72
2023/02/13 02:36:50;;;;;;;12.43;7.60;;;8.60;99.90;;;;;;4993651;28;20499;-72
2023/02/13 02:39:31;;;;;;;10.43;7.40;;;8.70;99.90;;;;;;4993597;28;20411;-72
2023/02/13 02:42:08;;;;;;;14.70;8.90;;;8.70;99.90;;;;;;5013308;28;20480;-72
2023/02/13 02:44:48;;;;;;;13.07;7.27;;;8.70;99.90;;;;;;5014711;28;20409;-72
2023/02/13 02:50:37;;;;;;;9.23;6.23;;;8.70;99.90;;;;;;4994855;28;20411;-73
2023/02/13 02:53:21;;;;;;;12.73;7.70;;;8.70;99.90;;;;;;4997445;28;20487;-73
2023/02/13 02:56:02;;;;;;;10.67;7.57;;;8.70;99.90;;;;;;4993084;28;20864;-73
2023/02/13 03:07:19;;;;;;;10.07;6.17;;;8.70;99.90;;;;;;4992427;28;20419;-74
2023/02/13 03:15:34;;;;;;;16.77;8.60;;;8.60;99.90;;;;;;4994658;28;20404;-74
2023/02/13 03:24:16;;;;;;;12.87;9.27;;;8.50;99.90;;;;;;5012512;28;20470;-72
2023/02/13 03:26:53;;;;;;;11.17;8.80;;;8.50;99.90;;;;;;5012510;28;20799;-71
2023/02/13 03:32:36;;;;;;;11.63;7.10;;;8.40;99.90;;;;;;5012318;28;20498;-72
2023/02/13 03:38:21;;;;;;;11.43;6.73;;;8.40;99.90;;;;;;5012628;28;20442;-71
2023/02/13 03:43:51;;;;;;;10.20;6.77;;;8.30;99.90;;;;;;5014442;28;20492;-72
2023/02/13 03:46:18;;;;;;;11.20;7.50;;;8.30;99.90;;;;;;5010557;28;20510;-72
2023/02/13 03:51:46;;;;;;;10.73;6.73;;;8.30;99.90;;;;;;5012305;28;20418;-72
2023/02/13 03:54:16;;;;;;;12.40;9.10;;;8.20;99.90;;;;;;5011992;28;20521;-72
2023/02/13 03:59:32;;;;;;;14.50;8.27;;;8.20;99.90;;;;;;5012360;28;20561;-72
2023/02/13 04:02:09;;;;;;;10.60;7.87;;;8.10;99.90;;;;;;5012080;28;20450;-72
2023/02/13 04:04:51;;;;;;;11.47;8.30;;;8.20;99.90;;;;;;5011785;28;20441;-70
2023/02/13 04:07:29;;;;;;;12.50;7.83;;;8.10;99.90;;;;;;5012175;28;20554;-72
2023/02/13 04:10:09;;;;;;;13.50;8.87;;;8.10;99.90;;;;;;5011881;28;20965;-72
2023/02/13 04:12:39;;;;;;;14.43;9.60;;;8.00;99.90;;;;;;5012025;28;21007;-71
2023/02/13 04:15:15;;;;;;;9.70;6.97;;;8.00;99.90;;;;;;5011734;28;20498;-72
2023/02/13 04:17:52;;;;;;;15.03;8.60;;;8.00;99.90;;;;;;4996163;28;20408;-70
2023/02/13 04:20:18;;;;;;;12.77;8.03;;;7.90;99.90;;;;;;4992176;28;20868;-73
2023/02/13 04:22:46;;;;;;;12.50;8.40;;;7.90;99.90;;;;;;4992683;28;20498;-71
2023/02/13 04:25:14;;;;;;;17.07;8.50;;;7.80;99.90;;;;;;4991939;28;20421;-70
2023/02/13 04:27:40;;;;;;;11.37;7.10;;;7.80;99.90;;;;;;4992207;28;20432;-73
2023/02/13 04:30:06;;;;;;;14.43;8.50;;;7.70;99.90;;;;;;4992138;28;20876;-72
2023/02/13 04:32:32;;;;;;;14.20;8.93;;;7.80;99.90;;;;;;4990837;28;20228;-72
2023/02/13 04:34:57;;;;;;;16.43;9.80;;;7.70;99.90;;;;;;4991863;28;20408;-72
2023/02/13 04:37:23;;;;;;;16.80;8.00;;;7.60;99.90;;;;;;4994560;28;20180;-72
2023/02/13 04:39:48;;;;;;;13.47;7.90;;;7.60;99.90;;;;;;4996315;28;20161;-73
2023/02/13 04:42:14;;;;;;;14.03;8.80;;;7.60;99.90;;;;;;4995793;28;20189;-73
2023/02/13 04:44:39;;;;;;;15.20;8.80;;;7.50;99.90;;;;;;4996481;28;20177;-71
2023/02/13 04:47:05;;;;;;;13.37;8.70;;;7.40;99.90;;;;;;5015250;28;20168;-71
2023/02/13 04:49:30;;;;;;;12.67;8.30;;;7.50;99.90;;;;;;5014031;28;20259;-71
2023/02/13 04:51:56;;;;;;;14.47;8.43;;;7.40;99.90;;;;;;5015330;28;20220;-72
2023/02/13 04:54:21;;;;;;;16.00;10.37;;;7.40;99.90;;;;;;5026104;28;20750;-72
2023/02/13 04:56:47;;;;;;;19.37;9.57;;;7.30;99.90;;;;;;5016090;28;20172;-72
2023/02/13 04:59:12;;;;;;;16.53;9.27;;;7.30;99.90;;;;;;5030252;28;20180;-72
2023/02/13 05:01:38;;;;;;;16.37;8.50;;;7.30;99.90;;;;;;5015125;28;20304;-72
2023/02/13 05:04:03;;;;;;;16.17;8.83;;;7.20;99.90;;;;;;5014964;28;20171;-72
2023/02/13 05:06:29;;;;;;;18.20;10.30;;;7.20;99.90;;;;;;5015042;28;20171;-73
2023/02/13 05:08:54;;;;;;;14.37;8.83;;;7.10;99.90;;;;;;5014964;28;20181;-72
2023/02/13 05:11:20;;;;;;;14.90;8.60;;;7.10;99.90;;;;;;5015235;28;20195;-73
2023/02/13 05:13:45;;;;;;;16.90;9.20;;;7.00;99.90;;;;;;5015023;28;20684;-72
2023/02/13 05:16:11;;;;;;;12.80;8.53;;;6.90;99.90;;;;;;5004371;28;20176;-72
2023/02/13 05:18:36;;;;;;;19.87;8.60;;;6.80;99.90;;;;;;5013515;28;20199;-72
2023/02/13 05:23:46;;;;;;;14.00;8.93;;;6.60;99.90;;;;;;5015010;28;20229;-72
2023/02/13 05:26:12;;;;;;;17.63;9.73;;;6.60;99.90;;;;;;5014268;28;20892;-72
2023/02/13 05:31:21;;;;;;;15.50;9.60;;;6.30;99.90;;;;;;5014459;28;20199;-72
2023/02/13 05:33:47;;;;;;;14.73;8.30;;;6.30;99.90;;;;;;5014455;28;20446;-73
2023/02/13 05:36:12;;;;;;;13.33;8.83;;;6.20;99.90;;;;;;5014400;28;20165;-73
2023/02/13 05:38:40;;;;;;;18.47;8.80;;;6.20;99.90;;;;;;5014463;28;20169;-73
2023/02/13 05:41:05;;;;;;;19.33;10.50;;;6.20;99.90;;;;;;5014947;28;20534;-73
2023/02/13 05:43:31;;;;;;;15.63;9.73;;;6.20;99.90;;;;;;5014387;28;20418;-72
2023/02/13 05:46:08;;;;;;;14.57;9.77;;;6.20;99.90;;;;;;5001902;28;20185;-72
2023/02/13 05:48:33;;;;;;;15.33;8.90;;;6.20;99.90;;;;;;4993427;28;20172;-72
2023/02/13 05:50:59;;;;;;;16.10;8.80;;;6.20;99.90;;;;;;4994440;28;20424;-71
2023/02/13 05:53:24;;;;;;;18.53;10.93;;;6.10;99.90;;;;;;4994372;28;20208;-71
2023/02/13 05:55:53;;;;;;;15.17;9.53;;;6.10;99.90;;;;;;4994267;28;20165;-72
2023/02/13 05:58:19;;;;;;;15.20;9.57;;;6.10;99.90;;;;;;4994405;28;20686;-72
2023/02/13 06:00:45;;;;;;;18.97;9.90;;;6.10;99.90;;;;;;5000664;28;20431;-72
2023/02/13 06:03:11;;;;;;;16.37;9.53;;;6.00;99.90;;;;;;5013916;28;20900;-71
2023/02/13 06:05:36;;;;;;;13.43;8.80;;;5.90;99.90;;;;;;5022660;28;20480;-72
2023/02/13 06:08:02;;;;;;;16.00;9.20;;;5.90;99.90;;;;;;5016753;28;20186;-71
2023/02/13 06:10:28;;;;;;;12.40;9.10;;;5.80;99.90;;;;;;5013743;28;20274;-71
2023/02/13 06:12:53;;;;;;;18.37;8.87;;;5.90;99.90;;;;;;5013742;28;20199;-71
2023/02/13 06:15:19;;;;;;;17.90;9.63;;;5.90;99.90;;;;;;5001032;28;20173;-72
2023/02/13 06:17:44;;;;;;;18.67;9.70;;;5.90;99.90;;;;;;4994349;28;20187;-73
2023/02/13 06:20:10;;;;;;;13.20;9.17;;;5.80;99.90;;;;;;4994296;28;20181;-73
2023/02/13 06:22:35;;;;;;;15.53;9.00;;;5.70;99.90;;;;;;4994221;28;20170;-73
2023/02/13 06:25:01;;;;;;;19.57;9.70;;;5.70;99.90;;;;;;4992652;28;20180;-73
2023/02/13 06:27:27;;;;;;;19.90;8.63;;;5.70;99.90;;;;;;4994072;28;20183;-73
2023/02/13 06:29:52;;;;;;;18.83;9.20;;;5.60;99.90;;;;;;4992681;28;20185;-70
2023/02/13 06:32:18;;;;;;;14.33;10.00;;;5.70;99.90;;;;;;4993735;28;20181;-71
2023/02/13 06:34:43;;;;;;;16.57;10.23;;;5.60;99.90;;;;;;4993414;28;20267;-72
2023/02/13 06:37:09;;;;;;;15.37;9.00;;;5.60;99.90;;;;;;4993552;28;20631;-72
2023/02/13 06:39:34;;;;;;;19.90;8.83;;;5.60;99.90;;;;;;4993724;28;20174;-73
2023/02/13 06:42:00;;;;;;;12.10;8.70;;;5.60;99.90;;;;;;4993969;28;20215;-73
2023/02/13 06:44:25;;;;;;;13.10;7.57;;;5.50;99.90;;;;;;4992264;28;20176;-73
2023/02/13 06:46:51;;;;;;;15.70;9.20;;;5.60;99.90;;;;;;5013113;28;20540;-73
2023/02/13 06:49:16;;;;;;;15.30;8.83;;;5.60;99.90;;;;;;5013078;28;20645;-71
2023/02/13 06:51:42;;;;;;;20.13;9.27;;;5.50;99.90;;;;;;5013074;28;20761;-72
2023/02/13 06:54:07;;;;;;;14.37;8.90;;;5.60;99.90;;;;;;5012852;28;20196;-71
2023/02/13 06:56:33;;;;;;;15.10;10.13;;;5.60;99.90;;;;;;5012889;28;20173;-71
2023/02/13 06:58:58;;;;;;;18.70;9.37;;;5.50;99.90;;;;;;5012550;28;20256;-70
2023/02/13 07:01:24;;;;;;;17.07;10.00;;;5.60;99.90;;;;;;5003893;28;20658;-73
2023/02/13 07:03:49;;;;;;;12.50;8.97;;;5.60;99.90;;;;;;5004763;28;20207;-73
2023/02/13 07:06:19;;;;;;;22.20;9.83;;;5.70;99.90;;;;;;4992945;28;20181;-73
2023/02/13 07:08:45;;;;;;;15.60;8.50;;;5.80;99.90;;;;;;4993717;28;20189;-72
2023/02/13 07:11:18;;;;;;;18.27;9.97;;;5.80;99.90;;;;;;4993031;28;20574;-71
2023/02/13 07:13:44;;;;;;;12.90;9.07;;;5.90;99.90;;;;;;4993061;28;20455;-71
2023/02/13 07:16:09;;;;;;;27.17;8.50;;;5.90;99.90;;;;;;4999813;28;20878;-71
2023/02/13 07:18:35;;;;;;;12.90;8.90;;;5.90;99.90;;;;;;5023224;28;20693;-72
2023/02/13 07:21:00;;;;;;;21.73;9.30;;;5.90;99.90;;;;;;5012498;28;20192;-72
2023/02/13 07:23:26;;;;;;;16.30;9.87;;;6.00;99.90;;;;;;5012594;28;20255;-72
2023/02/13 07:25:51;;;;;;;18.70;8.70;;;6.00;99.90;;;;;;5012274;28;20259;-71
2023/02/13 07:28:17;;;;;;;15.13;8.27;;;6.10;99.90;;;;;;5012394;28;20540;-72
2023/02/13 07:30:42;;;;;;;13.70;8.30;;;6.20;99.90;;;;;;5012364;28;20202;-71
2023/02/13 07:33:08;;;;;;;15.67;9.27;;;6.20;99.90;;;;;;5001847;28;20196;-71
2023/02/13 07:35:36;;;;;;;14.47;8.23;;;6.20;99.90;;;;;;4992691;28;20184;-72
2023/02/13 07:38:02;;;;;;;16.43;8.70;;;6.30;99.90;;;;;;4992643;28;20491;-73
2023/02/13 07:40:28;;;;;;;13.83;7.87;;;6.30;99.90;;;;;;4992978;28;20439;-74
2023/02/13 07:42:54;;;;;;;13.33;8.50;;;6.40;99.90;;;;;;4992765;28;20415;-72
2023/02/13 07:45:19;;;;;;;11.23;8.60;;;6.40;99.90;;;;;;4992395;28;20173;-73
2023/02/13 07:47:45;;;;;;;17.90;9.60;;;6.40;99.90;;;;;;4992653;28;20519;-72
2023/02/13 07:50:11;;;;;;;15.00;8.50;;;6.50;99.90;;;;;;4992490;28;20756;-72
2023/02/13 07:52:37;;;;;;;14.23;9.37;;;6.50;99.90;;;;;;4992519;28;20176;-72
2023/02/13 07:55:03;;;;;;;13.00;7.77;;;6.50;99.90;;;;;;4992174;28;20169;-72
2023/02/13 07:57:30;;;;;;;12.30;7.47;;;6.60;99.90;;;;;;4992551;28;20639;-72
2023/02/13 07:59:56;;;;;;;15.30;8.40;;;6.70;99.90;;;;;;4994483;28;20404;-72
2023/02/13 08:02:21;;;;;;;13.77;8.50;;;6.80;99.90;;;;;;4992468;28;20929;-73
2023/02/13 08:04:47;;;;;;;15.40;8.57;;;6.90;99.90;;;;;;4992186;28;20176;-72
2023/02/13 08:07:14;;;;;;;15.80;8.30;;;7.00;99.90;;;;;;4992634;28;20169;-73
2023/02/13 08:12:24;;;;;;;15.77;9.73;;;7.40;99.90;;;;;;4994418;28;20426;-72
2023/02/13 08:14:50;;;;;;;20.27;11.50;;;7.60;99.90;;;;;;4996354;28;20447;-73
2023/02/13 08:17:15;;;;;;;18.43;11.67;;;8.50;99.90;;;;;;4996298;28;20169;-71
2023/02/13 08:19:41;;;;;;;14.37;8.27;;;9.90;99.90;;;;;;4995576;28;20169;-72
2023/02/13 08:22:06;;;;;;;17.00;9.53;;;11.50;99.90;;;;;;4994829;28;20279;-72
2023/02/13 08:24:32;;;;;;;9.53;7.43;;;12.90;99.90;;;;;;4995975;28;20179;-72
2023/02/13 08:26:58;;;;;;;12.47;8.13;;;13.70;99.90;;;;;;4995873;28;20586;-72
2023/02/13 08:29:23;;;;;;;14.00;8.80;;;14.50;99.90;;;;;;5026666;28;20442;-72
2023/02/13 08:31:49;;;;;;;8.93;7.33;;;15.30;99.90;;;;;;4995863;28;20697;-71
2023/02/13 08:34:14;;;;;;;10.40;7.70;;;15.80;99.90;;;;;;4995616;28;20192;-70
2023/02/13 08:36:40;;;;;;;11.97;8.43;;;16.30;99.90;;;;;;4995954;28;20200;-70
2023/02/13 08:39:07;;;;;;;10.17;7.40;;;16.70;99.90;;;;;;4995852;28;20524;-70
2023/02/13 08:41:33;;;;;;;7.70;7.00;;;17.10;99.90;;;;;;4995792;28;20181;-71
2023/02/13 08:43:59;;;;;;;12.27;7.90;;;17.90;99.90;;;;;;4995707;28;20783;-71
2023/02/13 08:46:24;;;;;;;8.47;6.67;;;18.80;97.70;;;;;;4995471;28;20177;-71
2023/02/13 08:48:50;;;;;;;7.97;7.17;;;19.40;92.90;;;;;;4994577;28;20169;-71
2023/02/13 08:51:15;;;;;;;9.03;7.37;;;20.10;89.30;;;;;;4995630;28;20200;-71
2023/02/13 08:53:41;;;;;;;7.73;5.80;;;20.70;82.30;;;;;;4994329;28;20193;-71
2023/02/13 08:56:07;;;;;;;7.80;7.10;;;20.90;76.40;;;;;;4995133;28;20181;-72
2023/02/13 08:58:33;;;;;;;6.70;5.70;;;21.50;73.90;;;;;;4995553;28;20400;-71
2023/02/13 09:00:58;;;;;;;6.90;5.97;;;22.20;70.60;;;;;;5004386;28;20197;-71
2023/02/13 09:03:24;;;;;;;7.97;6.50;;;22.70;66.00;;;;;;4994967;28;20422;-72
2023/02/13 09:05:49;;;;;;;7.80;6.33;;;22.90;62.40;;;;;;4995262;28;20525;-72
2023/02/13 09:08:15;;;;;;;10.77;5.87;;;23.10;60.50;;;;;;4993977;28;20680;-72
2023/02/13 09:10:44;;;;;;;9.40;7.00;;;23.10;58.50;;;;;;4995395;28;20208;-72
2023/02/13 09:13:10;;;;;;;8.20;5.93;;;23.30;58.00;;;;;;4995040;28;20269;-72
2023/02/13 09:15:39;;;;;;;8.90;6.20;;;23.30;57.20;;;;;;4993719;28;20490;-72
2023/02/13 09:18:06;;;;;;;8.23;6.63;;;23.50;57.30;;;;;;4994936;28;20396;-72
2023/02/13 09:20:31;;;;;;;7.97;6.63;;;23.80;57.20;;;;;;4993878;28;20420;-72
2023/02/13 09:22:57;;;;;;;10.23;7.23;;;23.80;56.30;;;;;;4994886;28;20419;-72
2023/02/13 09:25:22;;;;;;;7.37;6.63;;;24.00;55.20;;;;;;4994787;28;20168;-72
2023/02/13 09:27:48;;;;;;;7.40;6.10;;;23.60;55.00;;;;;;4994946;28;20204;-72
2023/02/13 09:30:21;;;;;;;10.90;7.70;;;23.70;55.30;;;;;;5005764;28;20620;-72
2023/02/13 09:32:47;;;;;;;7.80;6.80;;;24.10;54.80;;;;;;5014145;28;20218;-72
2023/02/13 09:35:13;;;;;;;8.77;6.77;;;24.10;53.70;;;;;;5022400;28;20403;-72
2023/02/13 09:37:39;;;;;;;10.10;7.10;;;24.20;53.30;;;;;;5016783;28;20412;-72
2023/02/13 09:40:15;;;;;;;8.87;6.50;;;24.30;53.50;;;;;;5014174;28;20553;-72
2023/02/13 09:42:41;;;;;;;9.40;7.27;;;24.60;53.60;;;;;;5014366;28;20202;-72
2023/02/13 09:45:10;;;;;;;11.80;8.27;;;24.60;52.40;;;;;;5013879;28;20423;-72
2023/02/13 09:47:41;;;;;;;7.50;6.70;;;24.50;52.30;;;;;;5014157;28;20403;-72
2023/02/13 09:50:17;;;;;;;10.83;6.47;;;24.80;52.10;;;;;;5014155;28;20411;-72
2023/02/13 09:52:44;;;;;;;10.67;8.00;;;25.00;52.20;;;;;;5014012;28;20410;-72
2023/02/13 09:55:16;;;;;;;9.70;8.20;;;24.70;50.90;;;;;;5013803;28;20407;-72
2023/02/13 09:57:53;;;;;;;9.97;6.50;;;24.70;51.50;;;;;;5012526;28;20407;-72
2023/02/13 10:00:25;;;;;;;7.77;6.50;;;25.00;51.80;;;;;;5003037;28;20749;-72
2023/02/13 10:02:53;;;;;;;9.83;6.77;;;25.90;51.40;;;;;;5012620;28;20415;-72
2023/02/13 10:05:37;;;;;;;8.73;5.93;;;26.50;50.20;;;;;;5013573;28;20403;-72
2023/02/13 10:08:32;;;;;;;7.60;6.80;;;26.50;48.70;;;;;;5013398;28;20426;-72
2023/02/13 10:11:31;;;;;;;11.20;7.60;;;27.10;48.80;;;;;;5013832;28;20979;-73
2023/02/13 10:14:18;;;;;;;8.87;6.23;;;27.00;48.40;;;;;;5013674;28;20447;-71
2023/02/13 10:16:54;;;;;;;9.50;7.07;;;28.00;48.10;;;;;;5012315;28;20403;-71
2023/02/13 10:19:28;;;;;;;8.43;7.57;;;28.40;46.30;;;;;;5013604;28;20803;-72
2023/02/13 10:21:59;;;;;;;9.90;7.53;;;28.60;45.90;;;;;;5013210;28;20418;-72
2023/02/13 10:24:53;;;;;;;8.80;7.10;;;29.10;45.00;;;;;;5012759;28;20498;-72
2023/02/13 10:27:48;;;;;;;9.07;6.83;;;30.10;44.50;;;;;;5012820;28;20793;-71
2023/02/13 10:30:30;;;;;;;9.33;7.50;;;30.40;43.00;;;;;;5012722;28;20418;-72
2023/02/13 10:33:18;;;;;;;7.70;6.90;;;30.60;42.60;;;;;;5013348;28;21061;-72
2023/02/13 10:36:10;;;;;;;6.80;6.20;;;31.00;41.90;;;;;;5012313;28;20570;-72
2023/02/13 10:39:04;;;;;;;6.50;5.67;;;31.80;42.20;;;;;;5013653;28;20900;-72
2023/02/13 10:41:41;;;;;;;8.73;7.47;;;32.90;40.80;;;;;;5023768;28;20802;-72
2023/02/13 10:44:31;;;;;;;7.93;7.13;;;32.80;38.40;;;;;;4993590;28;20399;-72
2023/02/13 10:47:06;;;;;;;7.97;7.17;;;32.80;38.40;;;;;;4993463;28;20459;-72
2023/02/13 10:49:59;;;;;;;11.60;6.43;;;32.40;37.50;;;;;;4999183;28;20950;-72
2023/02/13 10:52:38;;;;;;;7.63;5.63;;;32.60;37.50;;;;;;4993288;28;20774;-72
2023/02/13 10:55:34;;;;;;;8.03;6.33;;;32.50;37.40;;;;;;4993184;28;20431;-72
2023/02/13 10:58:29;;;;;;;9.70;6.53;;;32.30;36.90;;;;;;4993236;28;20403;-72
2023/02/13 11:01:04;;;;;;;8.47;6.63;;;32.50;37.30;;;;;;4993353;28;20412;-72
2023/02/13 11:03:30;;;;;;;7.73;6.90;;;32.60;36.30;;;;;;4993225;28;20403;-74
2023/02/13 11:05:57;;;;;;;8.00;7.20;;;32.40;36.10;;;;;;4993100;28;20814;-72
2023/02/13 11:08:37;;;;;;;7.93;6.60;;;31.80;36.00;;;;;;4993010;28;20208;-72
2023/02/13 11:11:03;;;;;;;7.17;6.47;;;31.60;36.90;;;;;;4991633;28;20431;-72
2023/02/13 11:13:29;;;;;;;5.63;5.03;;;31.40;36.60;;;;;;4992999;28;20448;-72
2023/02/13 11:16:09;;;;;;;7.07;6.13;;;31.70;36.80;;;;;;4992724;28;20594;-72
2023/02/13 11:18:38;;;;;;;6.80;6.10;;;32.30;36.90;;;;;;4991687;28;20443;-72
2023/02/13 11:21:18;;;;;;;7.47;6.27;;;32.30;35.70;;;;;;4992843;28;20937;-72
2023/02/13 11:23:49;;;;;;;5.97;5.30;;;32.80;36.20;;;;;;4993023;28;20755;-72
2023/02/13 11:26:37;;;;;;;6.80;6.10;;;33.20;35.80;;;;;;4990377;28;20416;-72
2023/02/13 11:29:19;;;;;;;9.00;6.63;;;33.10;34.90;;;;;;4992745;28;20419;-72
2023/02/13 11:31:44;;;;;;;6.77;5.00;;;33.40;35.10;;;;;;4992683;28;20471;-72
2023/02/13 11:34:25;;;;;;;5.77;5.27;;;33.50;35.00;;;;;;4992751;28;20490;-71
2023/02/13 11:37:12;;;;;;;6.50;5.03;;;34.00;34.80;;;;;;4992676;28;20161;-72
2023/02/13 11:39:42;;;;;;;7.53;5.83;;;33.90;34.50;;;;;;4992781;28;20491;-72
2023/02/13 11:42:18;;;;;;;4.40;4.03;;;34.00;34.20;;;;;;4992676;28;20423;-72
2023/02/13 11:44:49;;;;;;;8.10;5.80;;;34.20;34.00;;;;;;4994616;28;20403;-72
2023/02/13 11:47:15;;;;;;;6.00;5.40;;;34.10;34.20;;;;;;5007022;28;20471;-72
2023/02/13 11:49:45;;;;;;;5.97;5.37;;;34.70;34.40;;;;;;5009737;28;20411;-72
2023/02/13 11:52:32;;;;;;;8.03;4.60;;;34.80;33.50;;;;;;5017088;28;20223;-72
2023/02/13 11:55:22;;;;;;;7.30;6.60;;;35.40;33.40;;;;;;5011803;28;20486;-72
2023/02/13 11:58:00;;;;;;;5.60;5.10;;;35.50;32.60;;;;;;5012153;28;20469;-72
2023/02/13 12:00:36;;;;;;;7.70;5.40;;;35.80;33.30;;;;;;5012053;28;20419;-72
2023/02/13 12:03:22;;;;;;;5.17;4.50;;;36.70;33.60;;;;;;5012188;28;20762;-72
2023/02/13 12:06:05;;;;;;;5.70;4.60;;;37.80;33.00;;;;;;5011729;28;20466;-72
2023/02/13 12:08:35;;;;;;;4.80;4.40;;;38.80;33.00;;;;;;5011810;28;20437;-72
2023/02/13 12:11:03;;;;;;;4.97;4.50;;;38.80;30.90;;;;;;5011853;28;20499;-72
2023/02/13 12:13:34;;;;;;;10.13;5.90;;;38.40;30.70;;;;;;5011940;28;20486;-72
2023/02/13 12:16:04;;;;;;;5.80;5.20;;;38.50;30.50;;;;;;5007696;28;20906;-72
2023/02/13 12:18:36;;;;;;;4.20;3.80;;;38.10;30.00;;;;;;4991990;28;20463;-72
2023/02/13 12:21:16;;;;;;;6.10;5.47;;;38.50;30.50;;;;;;4991722;28;20840;-72
2023/02/13 12:24:27;;;;;;;4.90;4.50;;;38.30;30.00;;;;;;4992262;28;20435;-73
2023/02/13 12:27:09;;;;;;;6.87;5.00;;;39.00;30.00;;;;;;4990478;28;20423;-72
2023/02/13 12:29:43;;;;;;;7.63;7.00;;;38.90;29.90;;;;;;4992247;28;20421;-72
2023/02/13 12:32:31;;;;;;;4.73;4.33;;;38.90;29.70;;;;;;4992160;28;20937;-72
2023/02/13 12:35:24;;;;;;;4.30;3.90;;;39.00;29.80;;;;;;4991839;28;20539;-72
2023/02/13 12:38:17;;;;;;;4.83;4.43;;;38.70;29.30;;;;;;4990816;28;20468;-72
2023/02/13 12:41:21;;;;;;;5.33;4.80;;;38.60;29.40;;;;;;4992122;28;20519;-72
2023/02/13 12:44:12;;;;;;;4.93;4.43;;;37.80;29.00;;;;;;4991522;28;20454;-72
2023/02/13 12:46:46;;;;;;;6.77;4.73;;;37.30;29.20;;;;;;5000600;28;20415;-71
2023/02/13 12:49:39;;;;;;;4.90;4.40;;;36.80;29.50;;;;;;4992110;28;20443;-72
2023/02/13 12:52:39;;;;;;;5.17;4.57;;;36.50;29.80;;;;;;4990671;28;20443;-72
2023/02/13 12:55:33;;;;;;;7.57;5.03;;;36.50;30.20;;;;;;4991607;28;21049;-72
2023/02/13 12:58:13;;;;;;;4.90;4.33;;;36.30;30.50;;;;;;4993616;28;20424;-72
2023/02/13 13:01:17;;;;;;;7.63;4.77;;;36.20;30.50;;;;;;5020089;28;20505;-72
2023/02/13 13:04:33;;;;;;;3.60;3.30;;;36.10;30.20;;;;;;5034921;28;20394;-72
2023/02/13 13:07:19;;;;;;;6.83;5.20;;;36.40;31.10;;;;;;5025614;28;21103;-72
2023/02/13 13:09:55;;;;;;;5.03;4.53;;;36.90;30.00;;;;;;5034416;28;20508;-72
2023/02/13 13:12:40;;;;;;;5.70;3.97;;;37.30;29.90;;;;;;5034739;28;20458;-72
2023/02/13 13:15:37;;;;;;;4.40;4.00;;;37.40;29.70;;;;;;5034239;28;20418;-72
2023/02/13 13:18:25;;;;;;;4.20;3.80;;;36.90;29.60;;;;;;5034769;28;20448;-72
2023/02/13 13:21:20;;;;;;;6.03;3.87;;;37.40;30.00;;;;;;5034415;28;20465;-72
2023/02/13 13:24:11;;;;;;;4.60;3.80;;;37.40;29.90;;;;;;5034435;28;20491;-73
2023/02/13 13:26:42;;;;;;;4.63;4.13;;;37.40;29.30;;;;;;5032910;28;20933;-73
2023/02/13 13:29:23;;;;;;;5.47;4.50;;;37.70;29.70;;;;;;5034491;28;20406;-73
2023/02/13 13:31:56;;;;;;;4.60;4.20;;;37.40;29.10;;;;;;5034250;28;20508;-72
2023/02/13 13:34:24;;;;;;;3.80;3.50;;;37.40;29.50;;;;;;5034077;28;20450;-72
2023/02/13 13:36:58;;;;;;;4.57;4.17;;;37.70;29.90;;;;;;5034072;28;20459;-72
2023/02/13 13:39:25;;;;;;;3.73;3.30;;;37.30;29.70;;;;;;5034326;28;20398;-72
2023/02/13 13:42:08;;;;;;;4.07;3.77;;;36.80;29.50;;;;;;5034069;28;20418;-72
2023/02/13 13:45:03;;;;;;;4.33;3.93;;;36.60;30.00;;;;;;5033315;28;20501;-72
2023/02/13 13:47:59;;;;;;;4.53;3.60;;;36.40;29.90;;;;;;5006856;28;20788;-73
2023/02/13 13:50:28;;;;;;;3.73;3.00;;;35.80;29.90;;;;;;5014228;28;20978;-72
2023/02/13 13:53:06;;;;;;;3.37;3.07;;;36.00;30.80;;;;;;5013796;28;20403;-73
2023/02/13 13:55:47;;;;;;;3.70;3.30;;;35.40;30.40;;;;;;5013853;28;20399;-72
2023/02/13 13:58:39;;;;;;;4.27;3.90;;;34.80;30.90;;;;;;5012217;28;20931;-72